createdAt,value
2023-05-16T00:00:42.345Z,90.81
2023-05-16T00:01:42.306Z,90.91
2023-05-16T00:02:42.621Z,90.91
2023-05-16T00:03:42.347Z,91.01
2023-05-16T00:04:42.276Z,91.01
2023-05-16T00:05:42.326Z,91.11
2023-05-16T00:06:42.281Z,91.01
2023-05-16T00:07:42.209Z,91.11
2023-05-16T00:08:42.185Z,90.91
2023-05-16T00:09:42.252Z,90.81
2023-05-16T00:10:42.180Z,90.50
2023-05-16T00:11:42.187Z,90.50
2023-05-16T00:12:42.189Z,91.22
2023-05-16T00:13:42.236Z,91.22
2023-05-16T00:14:42.223Z,90.91
2023-05-16T00:15:42.115Z,90.39
2023-05-16T00:16:42.404Z,90.30
2023-05-16T00:17:42.129Z,90.23
2023-05-16T00:18:42.107Z,90.39
2023-05-16T00:19:42.264Z,90.39
2023-05-16T00:20:42.097Z,90.44
2023-05-16T00:21:42.145Z,90.64
2023-05-16T00:22:42.062Z,90.39
2023-05-16T00:23:42.066Z,90.44
2023-05-16T00:24:42.041Z,90.50
2023-05-16T00:25:41.840Z,90.09
2023-05-16T00:26:42.082Z,90.03
2023-05-16T00:27:41.978Z,89.92
2023-05-16T00:28:41.946Z,90.23
2023-05-16T00:29:42.008Z,90.13
2023-05-16T00:30:42.018Z,90.34
2023-05-16T00:31:41.868Z,90.34
2023-05-16T00:32:42.004Z,90.13
2023-05-16T00:33:42.044Z,90.23
2023-05-16T00:34:42.056Z,90.34
2023-05-16T00:35:41.943Z,90.44
2023-05-16T00:36:41.881Z,90.23
2023-05-16T00:37:41.948Z,90.23
2023-05-16T00:38:41.848Z,90.34
2023-05-16T00:39:41.901Z,90.58
2023-05-16T00:40:41.965Z,90.75
2023-05-16T00:41:41.852Z,90.58
2023-05-16T00:42:41.823Z,90.69
2023-05-16T00:43:41.782Z,90.64
2023-05-16T00:44:41.824Z,90.44
2023-05-16T00:45:41.880Z,90.54
2023-05-16T00:46:41.843Z,90.54
2023-05-16T00:47:41.822Z,90.54
2023-05-16T00:48:41.824Z,90.64
2023-05-16T00:49:41.870Z,90.75
2023-05-16T00:50:41.767Z,90.75
2023-05-16T00:51:41.832Z,90.84
2023-05-16T00:52:41.700Z,90.75
2023-05-16T00:53:41.899Z,90.64
2023-05-16T00:54:41.699Z,90.75
2023-05-16T00:55:41.739Z,90.79
2023-05-16T00:56:41.688Z,90.75
2023-05-16T00:57:41.656Z,90.64
2023-05-16T00:58:41.686Z,90.54
2023-05-16T00:59:41.715Z,90.54
2023-05-16T01:00:41.525Z,90.54
2023-05-16T01:01:41.691Z,90.64
2023-05-16T01:02:41.771Z,90.44
2023-05-16T01:03:41.751Z,90.44
2023-05-16T01:04:41.755Z,90.54
2023-05-16T01:05:41.620Z,90.84
2023-05-16T01:06:41.562Z,90.84
2023-05-16T01:07:41.573Z,90.84
2023-05-16T01:08:41.587Z,90.79
2023-05-16T01:09:41.583Z,90.95
2023-05-16T01:10:41.652Z,90.84
2023-05-16T01:11:41.554Z,91.05
2023-05-16T01:12:41.525Z,91.05
2023-05-16T01:13:41.513Z,91.05
2023-05-16T01:14:41.380Z,91.05
2023-05-16T01:15:41.353Z,90.75
2023-05-16T01:16:41.541Z,90.54
2023-05-16T01:17:41.526Z,90.34
2023-05-16T01:18:41.442Z,90.34
2023-05-16T01:19:41.507Z,90.64
2023-05-16T01:20:41.577Z,90.64
2023-05-16T01:21:41.475Z,90.75
2023-05-16T01:22:41.306Z,90.75
2023-05-16T01:23:41.457Z,90.84
2023-05-16T01:24:41.425Z,90.89
2023-05-16T01:25:41.469Z,90.34
2023-05-16T01:26:41.369Z,90.69
2023-05-16T01:27:41.347Z,90.58
2023-05-16T01:28:41.408Z,90.37
2023-05-16T01:29:41.390Z,90.44
2023-05-16T01:30:41.440Z,90.69
2023-05-16T01:31:41.461Z,90.48
2023-05-16T01:32:41.528Z,90.69
2023-05-16T01:33:41.349Z,90.58
2023-05-16T01:34:41.353Z,90.37
2023-05-16T01:35:41.266Z,90.37
2023-05-16T01:36:41.444Z,90.79
2023-05-16T01:37:41.245Z,90.99
2023-05-16T01:38:41.222Z,90.89
2023-05-16T01:39:41.309Z,90.69
2023-05-16T01:40:41.285Z,90.69
2023-05-16T01:41:41.350Z,90.89
2023-05-16T01:42:41.274Z,90.89
2023-05-16T01:43:41.227Z,90.79
2023-05-16T01:44:41.199Z,90.79
2023-05-16T01:45:41.177Z,90.99
2023-05-16T01:46:41.217Z,91.40
2023-05-16T01:47:41.309Z,90.99
2023-05-16T01:48:41.144Z,90.99
2023-05-16T01:49:41.118Z,90.99
2023-05-16T01:50:41.238Z,91.09
2023-05-16T01:51:41.135Z,91.16
2023-05-16T01:52:41.213Z,91.05
2023-05-16T01:53:41.131Z,91.09
2023-05-16T01:54:41.130Z,91.20
2023-05-16T01:55:41.129Z,90.99
2023-05-16T01:56:41.127Z,90.37
2023-05-16T01:57:41.151Z,90.69
2023-05-16T01:58:40.998Z,90.99
2023-05-16T01:59:41.036Z,90.99
2023-05-16T02:00:41.046Z,90.99
2023-05-16T02:01:41.186Z,90.99
2023-05-16T02:02:41.045Z,91.30
2023-05-16T02:03:41.127Z,91.09
2023-05-16T02:04:40.847Z,90.79
2023-05-16T02:05:41.014Z,90.58
2023-05-16T02:06:41.054Z,90.79
2023-05-16T02:07:41.230Z,90.99
2023-05-16T02:08:40.980Z,90.48
2023-05-16T02:09:40.958Z,90.37
2023-05-16T02:10:40.967Z,90.58
2023-05-16T02:11:40.948Z,90.58
2023-05-16T02:12:40.829Z,90.28
2023-05-16T02:13:40.777Z,90.37
2023-05-16T02:14:40.942Z,90.17
2023-05-16T02:15:41.119Z,90.37
2023-05-16T02:16:40.947Z,90.37
2023-05-16T02:17:40.897Z,90.17
2023-05-16T02:18:40.903Z,90.34
2023-05-16T02:19:40.870Z,90.28
2023-05-16T02:20:40.872Z,90.28
2023-05-16T02:21:40.779Z,90.07
2023-05-16T02:22:40.840Z,89.87
2023-05-16T02:23:40.927Z,89.76
2023-05-16T02:24:40.777Z,89.87
2023-05-16T02:25:40.946Z,89.66
2023-05-16T02:26:40.826Z,89.66
2023-05-16T02:27:40.777Z,89.66
2023-05-16T02:28:40.886Z,89.97
2023-05-16T02:29:40.775Z,90.28
2023-05-16T02:30:40.786Z,90.07
2023-05-16T02:31:40.837Z,89.97
2023-05-16T02:32:40.737Z,89.72
2023-05-16T02:33:40.684Z,90.17
2023-05-16T02:34:40.759Z,90.48
2023-05-16T02:35:40.673Z,90.95
2023-05-16T02:36:40.691Z,91.30
2023-05-16T02:37:40.721Z,91.71
2023-05-16T02:38:40.785Z,91.91
2023-05-16T02:39:40.548Z,92.12
2023-05-16T02:40:40.689Z,92.63
2023-05-16T02:41:40.693Z,92.83
2023-05-16T02:42:40.690Z,93.04
2023-05-16T02:43:40.752Z,92.98
2023-05-16T02:44:40.672Z,92.98
2023-05-16T02:45:40.607Z,92.88
2023-05-16T02:46:40.673Z,93.08
2023-05-16T02:47:40.611Z,92.68
2023-05-16T02:48:40.659Z,92.57
2023-05-16T02:49:40.414Z,92.57
2023-05-16T02:50:40.428Z,92.93
2023-05-16T02:51:40.405Z,92.72
2023-05-16T02:52:40.486Z,92.61
2023-05-16T02:53:40.397Z,92.61
2023-05-16T02:54:40.508Z,92.51
2023-05-16T02:55:40.679Z,92.61
2023-05-16T02:56:40.473Z,92.51
2023-05-16T02:57:40.481Z,92.41
2023-05-16T02:58:40.472Z,92.41
2023-05-16T02:59:40.442Z,92.51
2023-05-16T03:00:40.450Z,92.61
2023-05-16T03:01:40.317Z,92.51
2023-05-16T03:02:40.591Z,92.10
2023-05-16T03:03:40.341Z,92.10
2023-05-16T03:04:40.334Z,92.31
2023-05-16T03:05:40.480Z,92.21
2023-05-16T03:06:40.456Z,92.10
2023-05-16T03:07:40.354Z,92.10
2023-05-16T03:08:40.278Z,92.46
2023-05-16T03:09:40.407Z,92.31
2023-05-16T03:10:40.323Z,92.46
2023-05-16T03:11:40.312Z,92.86
2023-05-16T03:12:40.374Z,92.51
2023-05-16T03:13:40.370Z,92.76
2023-05-16T03:14:40.271Z,93.33
2023-05-16T03:15:40.243Z,93.38
2023-05-16T03:16:40.347Z,93.79
2023-05-16T03:17:40.276Z,94.20
2023-05-16T03:18:40.337Z,94.40
2023-05-16T03:19:40.234Z,94.92
2023-05-16T03:20:40.233Z,95.02
2023-05-16T03:21:40.158Z,95.02
2023-05-16T03:22:40.322Z,95.23
2023-05-16T03:23:40.174Z,95.02
2023-05-16T03:24:40.351Z,94.81
2023-05-16T03:25:40.180Z,94.92
2023-05-16T03:26:40.173Z,94.92
2023-05-16T03:27:40.072Z,94.81
2023-05-16T03:28:39.974Z,94.71
2023-05-16T03:29:40.013Z,94.71
2023-05-16T03:30:40.033Z,94.71
2023-05-16T03:31:39.989Z,94.92
2023-05-16T03:32:40.134Z,94.81
2023-05-16T03:33:40.048Z,94.81
2023-05-16T03:34:40.075Z,94.40
2023-05-16T03:35:40.022Z,94.51
2023-05-16T03:36:39.963Z,94.92
2023-05-16T03:37:39.825Z,94.92
2023-05-16T03:38:40.089Z,94.45
2023-05-16T03:39:39.831Z,94.45
2023-05-16T03:40:39.810Z,94.55
2023-05-16T03:41:39.924Z,94.71
2023-05-16T03:42:39.918Z,95.02
2023-05-16T03:43:39.926Z,95.12
2023-05-16T03:44:40.001Z,95.32
2023-05-16T03:45:39.945Z,95.32
2023-05-16T03:46:39.903Z,95.02
2023-05-16T03:47:39.742Z,94.92
2023-05-16T03:48:39.713Z,94.85
2023-05-16T03:49:39.704Z,94.55
2023-05-16T03:50:41.121Z,94.34
2023-05-16T03:51:39.820Z,94.14
2023-05-16T03:52:40.581Z,94.24
2023-05-16T03:53:39.804Z,94.34
2023-05-16T03:54:39.871Z,94.55
2023-05-16T03:55:39.776Z,94.65
2023-05-16T03:56:39.837Z,94.51
2023-05-16T03:57:39.874Z,94.14
2023-05-16T03:58:39.828Z,94.04
2023-05-16T03:59:39.841Z,94.24
2023-05-16T04:00:39.779Z,94.14
2023-05-16T04:01:39.782Z,94.14
2023-05-16T04:02:39.905Z,93.93
2023-05-16T04:03:39.702Z,93.63
2023-05-16T04:04:39.685Z,93.52
2023-05-16T04:05:39.802Z,93.42
2023-05-16T04:06:39.754Z,93.52
2023-05-16T04:07:39.686Z,93.57
2023-05-16T04:08:39.784Z,93.77
2023-05-16T04:09:39.726Z,93.83
2023-05-16T04:10:39.673Z,93.73
2023-05-16T04:11:39.760Z,94.14
2023-05-16T04:12:39.709Z,93.93
2023-05-16T04:13:39.700Z,94.04
2023-05-16T04:14:39.583Z,93.87
2023-05-16T04:15:39.469Z,93.98
2023-05-16T04:16:39.644Z,93.83
2023-05-16T04:17:39.763Z,93.67
2023-05-16T04:18:39.654Z,93.83
2023-05-16T04:19:39.581Z,93.87
2023-05-16T04:20:39.578Z,93.57
2023-05-16T04:21:39.512Z,93.67
2023-05-16T04:22:39.606Z,93.57
2023-05-16T04:23:39.621Z,93.26
2023-05-16T04:24:39.486Z,93.67
2023-05-16T04:25:39.612Z,93.77
2023-05-16T04:26:39.549Z,93.16
2023-05-16T04:27:39.286Z,93.05
2023-05-16T04:28:39.580Z,92.95
2023-05-16T04:29:39.508Z,92.85
2023-05-16T04:30:39.441Z,92.85
2023-05-16T04:31:39.646Z,92.54
2023-05-16T04:32:39.511Z,92.33
2023-05-16T04:33:39.409Z,92.33
2023-05-16T04:34:40.269Z,92.44
2023-05-16T04:35:39.398Z,91.93
2023-05-16T04:36:39.302Z,91.82
2023-05-16T04:37:39.425Z,91.51
2023-05-16T04:38:39.358Z,91.72
2023-05-16T04:39:39.433Z,92.13
2023-05-16T04:40:39.371Z,92.03
2023-05-16T04:41:39.375Z,91.93
2023-05-16T04:42:39.421Z,91.61
2023-05-16T04:43:39.417Z,91.51
2023-05-16T04:44:39.362Z,91.10
2023-05-16T04:45:39.381Z,91.51
2023-05-16T04:46:39.347Z,91.10
2023-05-16T04:47:39.277Z,90.89
2023-05-16T04:48:39.332Z,90.59
2023-05-16T04:49:39.121Z,90.69
2023-05-16T04:50:39.142Z,89.87
2023-05-16T04:51:39.154Z,89.76
2023-05-16T04:52:39.092Z,89.87
2023-05-16T04:53:39.211Z,89.56
2023-05-16T04:54:39.216Z,89.56
2023-05-16T04:55:39.107Z,89.46
2023-05-16T04:56:39.126Z,89.04
2023-05-16T04:57:39.203Z,88.95
2023-05-16T04:58:40.999Z,89.56
2023-05-16T04:59:39.236Z,89.25
2023-05-16T05:00:39.228Z,88.95
2023-05-16T05:01:39.123Z,88.95
2023-05-16T05:02:39.223Z,88.64
2023-05-16T05:03:38.996Z,88.33
2023-05-16T05:04:39.107Z,88.23
2023-05-16T05:05:39.164Z,87.92
2023-05-16T05:06:39.124Z,88.23
2023-05-16T05:07:39.238Z,88.64
2023-05-16T05:08:39.075Z,88.53
2023-05-16T05:09:38.876Z,88.53
2023-05-16T05:10:38.965Z,87.92
2023-05-16T05:11:38.944Z,88.53
2023-05-16T05:12:39.143Z,88.29
2023-05-16T05:13:38.910Z,87.98
2023-05-16T05:14:39.048Z,87.88
2023-05-16T05:15:39.048Z,87.98
2023-05-16T05:16:39.076Z,88.08
2023-05-16T05:17:39.295Z,87.67
2023-05-16T05:18:39.016Z,87.46
2023-05-16T05:19:39.108Z,87.67
2023-05-16T05:20:38.941Z,87.05
2023-05-16T05:21:38.896Z,87.05
2023-05-16T05:22:38.993Z,86.65
2023-05-16T05:23:38.918Z,86.54
2023-05-16T05:24:38.874Z,86.44
2023-05-16T05:25:38.887Z,85.93
2023-05-16T05:26:38.836Z,86.03
2023-05-16T05:27:38.944Z,86.03
2023-05-16T05:28:38.905Z,85.93
2023-05-16T05:29:38.846Z,86.44
2023-05-16T05:30:40.592Z,85.93
2023-05-16T05:31:38.962Z,85.72
2023-05-16T05:32:38.812Z,86.03
2023-05-16T05:33:38.827Z,85.38
2023-05-16T05:34:38.778Z,84.96
2023-05-16T05:35:38.819Z,84.76
2023-05-16T05:36:38.754Z,84.31
2023-05-16T05:37:38.730Z,83.39
2023-05-16T05:38:38.729Z,83.65
2023-05-16T05:39:38.746Z,83.34
2023-05-16T05:40:38.575Z,83.25
2023-05-16T05:41:38.709Z,82.12
2023-05-16T05:42:38.719Z,82.49
2023-05-16T05:43:38.734Z,81.98
2023-05-16T05:44:38.509Z,81.87
2023-05-16T05:45:38.794Z,81.94
2023-05-16T05:46:38.630Z,81.32
2023-05-16T05:47:38.629Z,80.71
2023-05-16T05:48:38.645Z,79.64
2023-05-16T05:49:38.682Z,79.07
2023-05-16T05:50:38.703Z,78.86
2023-05-16T05:51:38.633Z,79.38
2023-05-16T05:52:38.548Z,78.80
2023-05-16T05:53:38.623Z,77.57
2023-05-16T05:54:38.534Z,77.87
2023-05-16T05:55:38.600Z,77.71
2023-05-16T05:56:38.537Z,77.40
2023-05-16T05:57:38.557Z,76.99
2023-05-16T05:58:38.582Z,77.03
2023-05-16T05:59:38.510Z,77.44
2023-05-16T06:00:38.480Z,77.74
2023-05-16T06:01:38.572Z,78.05
2023-05-16T06:02:38.684Z,78.16
2023-05-16T06:03:38.664Z,77.44
2023-05-16T06:04:38.617Z,77.84
2023-05-16T06:05:38.497Z,77.17
2023-05-16T06:06:38.434Z,77.33
2023-05-16T06:07:38.446Z,77.44
2023-05-16T06:08:38.453Z,77.23
2023-05-16T06:09:38.393Z,77.64
2023-05-16T06:10:38.539Z,78.46
2023-05-16T06:11:38.382Z,77.44
2023-05-16T06:12:38.443Z,77.54
2023-05-16T06:13:38.415Z,77.33
2023-05-16T06:14:38.402Z,77.33
2023-05-16T06:15:38.361Z,77.33
2023-05-16T06:16:38.444Z,77.40
2023-05-16T06:17:38.319Z,77.20
2023-05-16T06:18:38.408Z,76.58
2023-05-16T06:19:38.310Z,76.03
2023-05-16T06:20:38.315Z,76.65
2023-05-16T06:21:38.332Z,77.57
2023-05-16T06:22:38.261Z,77.77
2023-05-16T06:23:38.344Z,77.87
2023-05-16T06:24:38.372Z,77.43
2023-05-16T06:25:38.222Z,77.73
2023-05-16T06:26:38.240Z,76.92
2023-05-16T06:27:38.232Z,76.78
2023-05-16T06:28:38.236Z,76.84
2023-05-16T06:29:38.290Z,75.48
2023-05-16T06:30:38.218Z,75.10
2023-05-16T06:31:38.406Z,73.13
2023-05-16T06:32:38.237Z,72.52
2023-05-16T06:33:38.301Z,72.86
2023-05-16T06:34:38.127Z,71.59
2023-05-16T06:35:38.121Z,72.41
2023-05-16T06:36:38.103Z,72.72
2023-05-16T06:37:38.364Z,71.70
2023-05-16T06:38:38.181Z,72.11
2023-05-16T06:39:38.203Z,72.62
2023-05-16T06:40:38.181Z,71.50
2023-05-16T06:41:38.109Z,68.68
2023-05-16T06:42:38.287Z,65.06
2023-05-16T06:43:38.076Z,64.04
2023-05-16T06:44:38.087Z,63.60
2023-05-16T06:45:37.914Z,63.10
2023-05-16T06:46:37.930Z,63.71
2023-05-16T06:47:37.989Z,61.46
2023-05-16T06:48:38.042Z,58.20
2023-05-16T06:49:38.130Z,57.37
2023-05-16T06:50:38.063Z,57.27
2023-05-16T06:51:37.974Z,57.67
2023-05-16T06:52:37.939Z,55.95
2023-05-16T06:53:38.060Z,56.82
2023-05-16T06:54:38.049Z,57.45
2023-05-16T06:55:37.922Z,56.08
2023-05-16T06:56:37.923Z,57.40
2023-05-16T06:57:37.922Z,58.88
2023-05-16T06:58:37.922Z,58.82
2023-05-16T06:59:37.950Z,59.01
2023-05-16T07:00:37.805Z,59.99
2023-05-16T07:01:37.881Z,57.98
2023-05-16T07:02:37.846Z,57.81
2023-05-16T07:03:37.892Z,58.45
2023-05-16T07:04:37.758Z,58.37
2023-05-16T07:05:37.765Z,58.67
2023-05-16T07:06:37.681Z,59.21
2023-05-16T07:07:37.805Z,60.59
2023-05-16T07:08:37.652Z,61.07
2023-05-16T07:09:37.680Z,60.81
2023-05-16T07:10:37.654Z,57.96
2023-05-16T07:11:37.636Z,58.18
2023-05-16T07:12:37.612Z,57.96
2023-05-16T07:13:37.610Z,56.34
2023-05-16T07:14:37.597Z,58.42
2023-05-16T07:15:37.610Z,58.88
2023-05-16T07:16:37.714Z,59.79
2023-05-16T07:17:37.742Z,58.98
2023-05-16T07:18:37.628Z,59.33
2023-05-16T07:19:37.593Z,55.93
2023-05-16T07:20:37.588Z,52.51
2023-05-16T07:21:37.562Z,53.55
2023-05-16T07:22:37.635Z,51.68
2023-05-16T07:23:37.571Z,50.16
2023-05-16T07:24:37.559Z,51.55
2023-05-16T07:25:37.636Z,53.63
2023-05-16T07:26:37.504Z,53.65
2023-05-16T07:27:37.656Z,53.05
2023-05-16T07:28:37.627Z,52.99
2023-05-16T07:29:37.461Z,54.39
2023-05-16T07:30:37.619Z,55.43
2023-05-16T07:31:37.744Z,56.57
2023-05-16T07:32:37.656Z,57.51
2023-05-16T07:33:37.520Z,57.71
2023-05-16T07:34:37.625Z,58.65
2023-05-16T07:35:37.515Z,58.15
2023-05-16T07:36:37.671Z,58.35
2023-05-16T07:37:37.511Z,58.04
2023-05-16T07:38:37.513Z,58.17
2023-05-16T07:39:37.365Z,59.73
2023-05-16T07:40:37.489Z,59.12
2023-05-16T07:41:37.431Z,59.32
2023-05-16T07:42:37.500Z,59.14
2023-05-16T07:43:37.530Z,57.25
2023-05-16T07:44:37.439Z,55.73
2023-05-16T07:45:37.511Z,56.98
2023-05-16T07:46:37.514Z,56.57
2023-05-16T07:47:37.514Z,54.61
2023-05-16T07:48:37.461Z,55.55
2023-05-16T07:49:37.260Z,55.45
2023-05-16T07:50:37.356Z,55.35
2023-05-16T07:51:37.722Z,53.83
2023-05-16T07:52:37.357Z,52.56
2023-05-16T07:53:37.386Z,52.81
2023-05-16T07:54:37.340Z,52.53
2023-05-16T07:55:37.379Z,52.61
2023-05-16T07:56:37.402Z,51.12
2023-05-16T07:57:37.272Z,51.65
2023-05-16T07:58:37.296Z,51.95
2023-05-16T07:59:37.422Z,49.83
2023-05-16T08:00:37.258Z,50.48
2023-05-16T08:01:37.280Z,51.21
2023-05-16T08:02:37.194Z,50.23
2023-05-16T08:03:37.515Z,51.26
2023-05-16T08:04:37.414Z,50.15
2023-05-16T08:05:37.363Z,47.75
2023-05-16T08:06:37.374Z,49.17
2023-05-16T08:07:37.296Z,47.51
2023-05-16T08:08:37.283Z,46.45
2023-05-16T08:09:37.279Z,45.93
2023-05-16T08:10:37.258Z,46.21
2023-05-16T08:11:37.269Z,44.61
2023-05-16T08:12:37.121Z,43.56
2023-05-16T08:13:37.136Z,43.18
2023-05-16T08:14:37.276Z,42.68
2023-05-16T08:15:37.202Z,42.27
2023-05-16T08:16:37.234Z,39.53
2023-05-16T08:17:36.993Z,38.39
2023-05-16T08:18:37.137Z,37.87
2023-05-16T08:19:37.044Z,36.93
2023-05-16T08:20:37.138Z,36.79
2023-05-16T08:21:37.117Z,36.73
2023-05-16T08:22:37.071Z,35.01
2023-05-16T08:23:37.146Z,37.43
2023-05-16T08:24:37.058Z,37.25
2023-05-16T08:25:37.059Z,35.89
2023-05-16T08:26:37.076Z,36.01
2023-05-16T08:27:36.950Z,36.50
2023-05-16T08:28:37.069Z,38.16
2023-05-16T08:29:36.830Z,37.84
2023-05-16T08:30:36.937Z,37.45
2023-05-16T08:31:36.971Z,35.49
2023-05-16T08:32:37.079Z,35.35
2023-05-16T08:33:37.084Z,34.19
2023-05-16T08:34:36.901Z,34.51
2023-05-16T08:35:36.914Z,35.30
2023-05-16T08:36:36.932Z,33.73
2023-05-16T08:37:36.874Z,32.68
2023-05-16T08:38:36.886Z,31.67
2023-05-16T08:39:36.909Z,30.56
2023-05-16T08:40:36.841Z,31.27
2023-05-16T08:41:36.848Z,31.15
2023-05-16T08:42:36.867Z,32.82
2023-05-16T08:43:36.845Z,34.58
2023-05-16T08:44:36.919Z,35.91
2023-05-16T08:45:36.848Z,37.37
2023-05-16T08:46:36.743Z,39.42
2023-05-16T08:47:36.713Z,38.71
2023-05-16T08:48:36.660Z,40.30
2023-05-16T08:49:36.657Z,42.41
2023-05-16T08:50:36.664Z,42.54
2023-05-16T08:51:36.676Z,42.13
2023-05-16T08:52:36.579Z,43.57
2023-05-16T08:53:36.554Z,44.92
2023-05-16T08:54:36.560Z,45.25
2023-05-16T08:55:36.565Z,44.86
2023-05-16T08:56:36.551Z,45.47
2023-05-16T08:57:36.533Z,45.59
2023-05-16T08:58:36.524Z,44.35
2023-05-16T08:59:36.538Z,42.35
2023-05-16T09:00:36.513Z,41.59
2023-05-16T09:01:36.525Z,40.73
2023-05-16T09:02:36.510Z,39.23
2023-05-16T09:03:36.480Z,38.70
2023-05-16T09:04:36.568Z,38.57
2023-05-16T09:05:36.484Z,36.83
2023-05-16T09:06:36.587Z,35.64
2023-05-16T09:07:36.464Z,34.66
2023-05-16T09:08:36.446Z,35.43
2023-05-16T09:09:36.441Z,34.30
2023-05-16T09:10:36.515Z,34.59
2023-05-16T09:11:37.178Z,35.60
2023-05-16T09:12:37.249Z,35.68
2023-05-16T09:13:36.507Z,34.66
2023-05-16T09:14:36.521Z,34.96
2023-05-16T09:15:36.543Z,36.44
2023-05-16T09:16:36.564Z,34.68
2023-05-16T09:17:39.855Z,35.53
2023-05-16T09:18:36.599Z,36.66
2023-05-16T09:19:36.711Z,36.02
2023-05-16T09:20:36.305Z,38.53
2023-05-16T09:21:36.484Z,37.44
2023-05-16T09:22:36.363Z,37.32
2023-05-16T09:23:37.332Z,37.23
2023-05-16T09:24:36.509Z,34.93
2023-05-16T09:25:36.635Z,36.38
2023-05-16T09:26:36.402Z,37.30
2023-05-16T09:27:36.515Z,38.92
2023-05-16T09:28:36.394Z,39.83
2023-05-16T09:29:37.070Z,39.29
2023-05-16T09:30:36.306Z,38.49
2023-05-16T09:31:36.406Z,39.42
2023-05-16T09:32:36.326Z,37.90
2023-05-16T09:33:36.401Z,37.79
2023-05-16T09:34:36.411Z,39.18
2023-05-16T09:35:44.939Z,39.32
2023-05-16T09:36:36.402Z,38.79
2023-05-16T09:37:36.303Z,37.03
2023-05-16T09:38:36.231Z,36.28
2023-05-16T09:39:36.414Z,35.24
2023-05-16T09:40:36.249Z,33.60
2023-05-16T09:41:36.261Z,32.35
2023-05-16T09:42:36.182Z,30.18
2023-05-16T09:43:37.484Z,30.99
2023-05-16T09:44:36.212Z,32.14
2023-05-16T09:45:36.356Z,34.41
2023-05-16T09:46:36.266Z,35.25
2023-05-16T09:47:36.152Z,36.28
2023-05-16T09:48:36.154Z,36.61
2023-05-16T09:49:36.199Z,38.14
2023-05-16T09:50:36.156Z,38.06
2023-05-16T09:51:36.248Z,38.60
2023-05-16T09:52:36.101Z,38.64
2023-05-16T09:53:36.100Z,39.56
2023-05-16T09:54:36.251Z,38.49
2023-05-16T09:55:36.187Z,36.50
2023-05-16T09:56:35.927Z,36.93
2023-05-16T09:57:35.932Z,35.33
2023-05-16T09:58:35.932Z,35.88
2023-05-16T09:59:35.982Z,34.69
2023-05-16T10:00:35.921Z,33.31
2023-05-16T10:01:36.083Z,30.69
2023-05-16T10:02:36.063Z,30.40
2023-05-16T10:03:36.032Z,31.52
2023-05-16T10:04:35.848Z,32.15
2023-05-16T10:05:35.859Z,32.20
2023-05-16T10:06:35.942Z,33.86
2023-05-16T10:07:36.031Z,34.41
2023-05-16T10:08:35.964Z,35.63
2023-05-16T10:09:36.007Z,36.65
2023-05-16T10:10:35.968Z,37.17
2023-05-16T10:11:36.005Z,37.51
2023-05-16T10:12:35.951Z,39.23
2023-05-16T10:13:35.957Z,39.05
2023-05-16T10:14:35.893Z,38.90
2023-05-16T10:15:35.921Z,36.58
2023-05-16T10:16:36.099Z,35.23
2023-05-16T10:17:35.950Z,33.38
2023-05-16T10:18:35.913Z,33.22
2023-05-16T10:19:35.907Z,31.70
2023-05-16T10:20:35.847Z,31.51
2023-05-16T10:21:35.868Z,30.88
2023-05-16T10:22:35.805Z,30.83
2023-05-16T10:23:35.894Z,31.80
2023-05-16T10:24:35.835Z,30.49
2023-05-16T10:25:35.772Z,28.38
2023-05-16T10:26:35.786Z,28.27
2023-05-16T10:27:35.864Z,28.90
2023-05-16T10:28:35.731Z,29.57
2023-05-16T10:29:46.477Z,31.49
2023-05-16T10:30:35.781Z,31.34
2023-05-16T10:31:35.862Z,31.76
2023-05-16T10:32:35.735Z,32.21
2023-05-16T10:33:35.692Z,32.35
2023-05-16T10:34:35.549Z,35.53
2023-05-16T10:35:35.542Z,34.41
2023-05-16T10:36:35.634Z,33.62
2023-05-16T10:37:35.608Z,32.78
2023-05-16T10:38:35.696Z,31.13
2023-05-16T10:39:35.546Z,31.01
2023-05-16T10:40:35.550Z,30.69
2023-05-16T10:41:35.519Z,29.77
2023-05-16T10:42:35.615Z,30.35
2023-05-16T10:43:35.496Z,29.34
2023-05-16T10:44:35.493Z,29.22
2023-05-16T10:45:35.565Z,28.33
2023-05-16T10:46:35.605Z,29.82
2023-05-16T10:47:35.472Z,29.60
2023-05-16T10:48:35.486Z,27.50
2023-05-16T10:49:35.486Z,27.62
2023-05-16T10:50:35.648Z,27.52
2023-05-16T10:51:35.437Z,29.18
2023-05-16T10:52:35.529Z,30.27
2023-05-16T10:53:35.417Z,32.53
2023-05-16T10:54:35.397Z,33.19
2023-05-16T10:55:35.489Z,34.94
2023-05-16T10:56:35.471Z,36.20
2023-05-16T10:57:35.458Z,37.65
2023-05-16T10:58:35.450Z,38.89
2023-05-16T10:59:35.532Z,39.61
2023-05-16T11:00:35.408Z,40.54
2023-05-16T11:01:35.606Z,41.14
2023-05-16T11:02:35.498Z,41.22
2023-05-16T11:03:35.278Z,40.92
2023-05-16T11:04:35.442Z,41.42
2023-05-16T11:05:35.479Z,41.02
2023-05-16T11:06:35.292Z,41.22
2023-05-16T11:07:35.427Z,44.33
2023-05-16T11:08:35.464Z,43.82
2023-05-16T11:09:35.500Z,42.92
2023-05-16T11:10:35.328Z,42.03
2023-05-16T11:11:35.486Z,43.95
2023-05-16T11:12:35.331Z,41.95
2023-05-16T11:13:35.346Z,41.45
2023-05-16T11:14:35.338Z,41.16
2023-05-16T11:15:35.340Z,42.29
2023-05-16T11:16:35.336Z,41.97
2023-05-16T11:17:35.318Z,42.78
2023-05-16T11:18:35.375Z,44.09
2023-05-16T11:19:35.303Z,44.49
2023-05-16T11:20:35.265Z,42.68
2023-05-16T11:21:35.261Z,43.79
2023-05-16T11:22:35.328Z,42.96
2023-05-16T11:23:35.235Z,43.06
2023-05-16T11:24:35.221Z,42.86
2023-05-16T11:25:35.276Z,40.94
2023-05-16T11:26:35.189Z,40.84
2023-05-16T11:27:35.172Z,41.65
2023-05-16T11:28:35.230Z,41.45
2023-05-16T11:29:35.147Z,40.03
2023-05-16T11:30:35.152Z,41.27
2023-05-16T11:31:35.033Z,41.56
2023-05-16T11:32:35.238Z,41.47
2023-05-16T11:33:35.358Z,41.27
2023-05-16T11:34:35.060Z,43.30
2023-05-16T11:35:35.002Z,43.89
2023-05-16T11:36:34.983Z,44.92
2023-05-16T11:37:35.063Z,42.80
2023-05-16T11:38:35.126Z,42.29
2023-05-16T11:39:35.094Z,41.20
2023-05-16T11:40:35.008Z,40.72
2023-05-16T11:41:35.032Z,42.54
2023-05-16T11:42:35.012Z,41.63
2023-05-16T11:43:35.112Z,42.54
2023-05-16T11:44:35.010Z,41.81
2023-05-16T11:45:34.983Z,42.60
2023-05-16T11:46:35.081Z,43.80
2023-05-16T11:47:34.986Z,44.29
2023-05-16T11:48:36.523Z,45.10
2023-05-16T11:49:34.984Z,43.46
2023-05-16T11:50:34.972Z,42.15
2023-05-16T11:51:34.966Z,41.45
2023-05-16T11:52:34.935Z,42.76
2023-05-16T11:53:35.439Z,44.37
2023-05-16T11:54:34.993Z,43.26
2023-05-16T11:56:34.706Z,44.37
2023-05-16T11:57:34.884Z,44.09
2023-05-16T11:58:34.879Z,43.79
2023-05-16T11:59:34.789Z,43.28
2023-05-16T12:00:34.858Z,42.58
2023-05-16T12:01:34.825Z,43.08
2023-05-16T12:02:34.899Z,43.08
2023-05-16T12:03:35.536Z,43.10
2023-05-16T12:04:35.150Z,43.73
2023-05-16T12:05:35.718Z,43.63
2023-05-16T12:06:34.767Z,43.52
2023-05-16T12:07:34.712Z,45.54
2023-05-16T12:08:34.725Z,45.45
2023-05-16T12:09:34.797Z,44.66
2023-05-16T12:10:35.114Z,44.34
2023-05-16T12:11:34.730Z,46.17
2023-05-16T12:12:34.722Z,47.56
2023-05-16T12:13:34.656Z,47.06
2023-05-16T12:14:34.760Z,46.25
2023-05-16T12:15:34.697Z,44.54
2023-05-16T12:16:34.728Z,45.25
2023-05-16T12:17:34.696Z,47.16
2023-05-16T12:18:34.706Z,46.66
2023-05-16T12:19:34.680Z,47.26
2023-05-16T12:20:34.643Z,46.07
2023-05-16T12:21:34.658Z,46.48
2023-05-16T12:22:34.576Z,45.26
2023-05-16T12:23:34.589Z,47.28
2023-05-16T12:24:34.574Z,47.28
2023-05-16T12:25:34.572Z,47.16
2023-05-16T12:26:34.652Z,47.97
2023-05-16T12:27:34.580Z,46.76
2023-05-16T12:28:34.561Z,47.67
2023-05-16T12:29:34.555Z,46.66
2023-05-16T12:30:34.537Z,46.15
2023-05-16T12:31:34.593Z,47.06
2023-05-16T12:32:34.614Z,45.83
2023-05-16T12:33:34.528Z,44.21
2023-05-16T12:34:34.486Z,43.48
2023-05-16T12:35:34.513Z,43.99
2023-05-16T12:36:34.494Z,43.20
2023-05-16T12:37:34.406Z,43.71
2023-05-16T12:38:34.411Z,43.83
2023-05-16T12:39:34.986Z,43.43
2023-05-16T12:40:34.482Z,43.52
2023-05-16T12:41:34.440Z,42.92
2023-05-16T12:42:34.361Z,43.24
2023-05-16T12:43:34.349Z,43.85
2023-05-16T12:44:34.351Z,42.96
2023-05-16T12:45:35.480Z,42.46
2023-05-16T12:46:34.440Z,42.35
2023-05-16T12:47:34.330Z,42.15
2023-05-16T12:48:34.298Z,42.05
2023-05-16T12:49:34.289Z,42.05
2023-05-16T12:50:34.336Z,42.37
2023-05-16T12:51:35.620Z,43.41
2023-05-16T12:52:34.259Z,43.23
2023-05-16T12:53:34.223Z,44.24